Chang Sheng — V3PK — position and weather

sailwx.info

Track history (hours):
 
Tides and Currents Weather Stations Pressure Air Temp Water Temp Dewpoint Dewpoint Depression Visibility Wind Speed Wind Dir Waves Ship Positions

Chang Sheng

Last reported at 2017-Dec-09 07:09 UTC. Time now 2017-Dec-15 12:01 UTC.
Position N 34°04' E 130°00'.

Length 86 m; draft 5.2 m.

Type: Cargo ship. MMSI: 312161000.

Date/timePositionNaut miles runAvg speedWind from/ knotsBaromVisibWave heightAir tempDewpointWater temp
2017-Dec-09 07:09N 34°04' E 130°00'2 8.5
2017-Dec-09 06:56N 34°04' E 130°02'4 8.7
2017-Dec-09 06:30N 34°04' E 130°07'4 8.7
2017-Dec-09 05:59N 34°04' E 130°12'4 8.8
2017-Dec-09 05:30N 34°04' E 130°17'4 8.9
2017-Dec-09 05:00N 34°04' E 130°23'5 9.0
2017-Dec-09 04:30N 34°04' E 130°28'4 9.0
2017-Dec-09 04:00N 34°03' E 130°33'4 8.8
2017-Dec-09 03:30N 34°03' E 130°39'4 8.9
2017-Dec-09 03:00N 34°02' E 130°44'4 8.9
2017-Dec-09 02:30N 34°02' E 130°49'4 8.3
2017-Dec-09 02:00N 33°59' E 130°53'4 7.7
2017-Dec-09 01:30N 33°55' E 130°54'3 5.9
2017-Dec-09 01:00N 33°57' E 130°57'3 6.0
2017-Dec-09 00:30N 33°59' E 130°59'3 6.3
2017-Dec-09 00:00N 33°57' E 131°03'4 7.6
2017-Dec-08 23:30N 33°54' E 131°05'1 2.2
2017-Dec-08 22:58N 33°53' E 131°05'0 0.1
2017-Dec-08 22:28N 33°53' E 131°05'0 0.0
2017-Dec-08 21:58N 33°53' E 131°05'0 0.0
2017-Dec-08 21:28N 33°53' E 131°05'0 0.0
2017-Dec-08 20:58N 33°53' E 131°05'0 0.0
2017-Dec-08 20:28N 33°53' E 131°05'0 0.0
2017-Dec-08 19:58N 33°53' E 131°05'0 0.0
2017-Dec-08 19:28N 33°53' E 131°05'0 0.0
2017-Dec-08 18:58N 33°53' E 131°05'0 0.0
2017-Dec-08 18:28N 33°53' E 131°05'0 0.0
2017-Dec-08 17:58N 33°53' E 131°05'0 0.0
2017-Dec-08 17:28N 33°53' E 131°05'0 0.0
2017-Dec-08 16:55N 33°53' E 131°05'0 0.0
2017-Dec-08 16:28N 33°53' E 131°05'0 0.0
2017-Dec-08 15:55N 33°53' E 131°05'0 0.0
2017-Dec-08 15:28N 33°53' E 131°05'0 0.1
2017-Dec-08 14:58N 33°53' E 131°05'0 0.0
2017-Dec-08 14:28N 33°53' E 131°05'0 0.0
2017-Dec-08 13:58N 33°53' E 131°05'0 0.0
2017-Dec-08 13:28N 33°53' E 131°05'0 0.0
2017-Dec-08 12:58N 33°53' E 131°05'0 0.1
2017-Dec-08 12:28N 33°53' E 131°05'0 0.0
2017-Dec-08 11:58N 33°53' E 131°05'0 0.0
2017-Dec-08 11:28N 33°53' E 131°05'0 0.0
2017-Dec-08 10:58N 33°53' E 131°05'0 0.0
2017-Dec-08 10:28N 33°53' E 131°05'0 0.0
2017-Dec-08 09:58N 33°53' E 131°05'0 0.0
2017-Dec-08 09:28N 33°53' E 131°05'0 0.0
2017-Dec-08 08:58N 33°53' E 131°05'0 0.0
2017-Dec-08 08:28N 33°53' E 131°05'0 0.0
2017-Dec-08 07:58N 33°53' E 131°05'0 0.0
2017-Dec-08 07:28N 33°53' E 131°05'0 0.0
2017-Dec-08 06:58N 33°53' E 131°05'0 0.0
2017-Dec-08 06:28N 33°53' E 131°05'0 0.0
2017-Dec-08 05:58N 33°53' E 131°05'0 0.0
2017-Dec-08 05:28N 33°53' E 131°05'0 0.0
2017-Dec-08 04:58N 33°53' E 131°05'0 0.0
2017-Dec-08 04:28N 33°53' E 131°05'0 0.0
2017-Dec-08 03:58N 33°53' E 131°05'0 0.0
2017-Dec-08 03:28N 33°53' E 131°05'0 0.2
2017-Dec-08 03:00N 33°53' E 131°05'3 6.9
2017-Dec-08 02:30N 33°52' E 131°09'5 9.2
2017-Dec-08 02:00N 33°51' E 131°14'5 9.1
2017-Dec-08 01:30N 33°50' E 131°20'5 9.5
2017-Dec-08 01:01N 33°49' E 131°25'5 9.7
2017-Dec-08 00:30N 33°48' E 131°31'5 9.4
2017-Dec-08 00:00N 33°47' E 131°37'5 9.3
2017-Dec-07 23:30N 33°47' E 131°42'5 9.1
2017-Dec-07 23:00N 33°45' E 131°48'5 9.3
2017-Dec-07 22:30N 33°44' E 131°53'15 9.4
2017-Dec-07 20:55N 33°43' E 132°11'410.4
2017-Dec-07 20:30N 33°44' E 132°16'510.5
2017-Dec-07 19:59N 33°46' E 132°22'610.8
2017-Dec-07 19:29N 33°48' E 132°28'511.2
2017-Dec-07 19:00N 33°51' E 132°33'611.2
2017-Dec-07 18:30N 33°55' E 132°38'611.1
2017-Dec-07 17:59N 33°59' E 132°43'  
2017-Dec-03 06:30N 34°05' E 132°50'5 8.9
2017-Dec-03 05:58N 34°01' E 132°46'4 7.9
2017-Dec-03 05:30N 33°58' E 132°44'4 7.3
2017-Dec-03 05:00N 33°56' E 132°40'4 7.6
2017-Dec-03 04:29N 33°53' E 132°37'6 8.7
2017-Dec-03 03:46N 33°49' E 132°31'3 8.9
2017-Dec-03 03:28N 33°47' E 132°29'9 9.1
2017-Dec-03 02:29N 33°44' E 132°19'18 9.8
2017-Dec-03 00:41N 33°43' E 131°58'410.4
2017-Dec-03 00:20N 33°44' E 131°53'410.5
2017-Dec-02 23:57N 33°45' E 131°49'510.1
2017-Dec-02 23:30N 33°46' E 131°43'5 9.7
2017-Dec-02 23:00N 33°47' E 131°38'5 9.7
2017-Dec-02 22:30N 33°48' E 131°32'5 9.5
2017-Dec-02 22:00N 33°49' E 131°26'5 9.4
2017-Dec-02 21:31N 33°50' E 131°21'5 9.2
2017-Dec-02 21:00N 33°51' E 131°15'4 8.9
2017-Dec-02 20:31N 33°52' E 131°10'5 9.3
2017-Dec-02 20:00N 33°55' E 131°06'5 9.7
2017-Dec-02 19:30N 33°58' E 131°01'510.2
2017-Dec-02 19:00N 33°56' E 130°56'4 8.0
2017-Dec-02 18:30N 33°57' E 130°51'5 9.4
2017-Dec-02 18:00N 34°01' E 130°50'5 9.6
2017-Dec-02 17:30N 34°04' E 130°45'5 9.1
2017-Dec-02 17:00N 34°07' E 130°41'5 9.3
2017-Dec-02 16:30N 34°10' E 130°36'5 9.3
2017-Dec-02 16:00N 34°12' E 130°32'5 9.3
2017-Dec-02 15:30N 34°15' E 130°27'5 9.1
2017-Dec-02 15:00N 34°17' E 130°22'4 8.0
2017-Dec-02 14:30N 34°20' E 130°18'4 7.6
2017-Dec-02 14:00N 34°22' E 130°15'4 7.8
2017-Dec-02 13:30N 34°24' E 130°11'  
Track history (hours):
 
Tides and Currents Weather Stations Pressure Air Temp Water Temp Dewpoint Dewpoint Depression Visibility Wind Speed Wind Dir Waves Ship Positions

Chang Sheng

Last reported at 2017-Dec-09 07:09 UTC. Time now 2017-Dec-15 12:01 UTC.
Position N 34°04' E 130°00'.

Length 86 m; draft 5.2 m.

Type: Cargo ship. MMSI: 312161000.

Date/timePositionNaut miles runAvg speedWind from/ knotsBaromVisibWave heightAir tempDewpointWater temp
2017-Dec-09 07:09N 34°04' E 130°00'2 8.5
2017-Dec-09 06:56N 34°04' E 130°02'4 8.7
2017-Dec-09 06:30N 34°04' E 130°07'4 8.7
2017-Dec-09 05:59N 34°04' E 130°12'4 8.8
2017-Dec-09 05:30N 34°04' E 130°17'4 8.9
2017-Dec-09 05:00N 34°04' E 130°23'5 9.0
2017-Dec-09 04:30N 34°04' E 130°28'4 9.0
2017-Dec-09 04:00N 34°03' E 130°33'4 8.8
2017-Dec-09 03:30N 34°03' E 130°39'4 8.9
2017-Dec-09 03:00N 34°02' E 130°44'4 8.9
2017-Dec-09 02:30N 34°02' E 130°49'4 8.3
2017-Dec-09 02:00N 33°59' E 130°53'4 7.7
2017-Dec-09 01:30N 33°55' E 130°54'3 5.9
2017-Dec-09 01:00N 33°57' E 130°57'3 6.0
2017-Dec-09 00:30N 33°59' E 130°59'3 6.3
2017-Dec-09 00:00N 33°57' E 131°03'4 7.6
2017-Dec-08 23:30N 33°54' E 131°05'1 2.2
2017-Dec-08 22:58N 33°53' E 131°05'0 0.1
2017-Dec-08 22:28N 33°53' E 131°05'0 0.0
2017-Dec-08 21:58N 33°53' E 131°05'0 0.0
2017-Dec-08 21:28N 33°53' E 131°05'0 0.0
2017-Dec-08 20:58N 33°53' E 131°05'0 0.0
2017-Dec-08 20:28N 33°53' E 131°05'0 0.0
2017-Dec-08 19:58N 33°53' E 131°05'0 0.0
2017-Dec-08 19:28N 33°53' E 131°05'0 0.0
2017-Dec-08 18:58N 33°53' E 131°05'0 0.0
2017-Dec-08 18:28N 33°53' E 131°05'0 0.0
2017-Dec-08 17:58N 33°53' E 131°05'0 0.0
2017-Dec-08 17:28N 33°53' E 131°05'0 0.0
2017-Dec-08 16:55N 33°53' E 131°05'0 0.0
2017-Dec-08 16:28N 33°53' E 131°05'0 0.0
2017-Dec-08 15:55N 33°53' E 131°05'0 0.0
2017-Dec-08 15:28N 33°53' E 131°05'0 0.1
2017-Dec-08 14:58N 33°53' E 131°05'0 0.0
2017-Dec-08 14:28N 33°53' E 131°05'0 0.0
2017-Dec-08 13:58N 33°53' E 131°05'0 0.0
2017-Dec-08 13:28N 33°53' E 131°05'0 0.0
2017-Dec-08 12:58N 33°53' E 131°05'0 0.1
2017-Dec-08 12:28N 33°53' E 131°05'0 0.0
2017-Dec-08 11:58N 33°53' E 131°05'0 0.0
2017-Dec-08 11:28N 33°53' E 131°05'0 0.0
2017-Dec-08 10:58N 33°53' E 131°05'0 0.0
2017-Dec-08 10:28N 33°53' E 131°05'0 0.0
2017-Dec-08 09:58N 33°53' E 131°05'0 0.0
2017-Dec-08 09:28N 33°53' E 131°05'0 0.0
2017-Dec-08 08:58N 33°53' E 131°05'0 0.0
2017-Dec-08 08:28N 33°53' E 131°05'0 0.0
2017-Dec-08 07:58N 33°53' E 131°05'0 0.0
2017-Dec-08 07:28N 33°53' E 131°05'0 0.0
2017-Dec-08 06:58N 33°53' E 131°05'0 0.0
2017-Dec-08 06:28N 33°53' E 131°05'0 0.0
2017-Dec-08 05:58N 33°53' E 131°05'0 0.0
2017-Dec-08 05:28N 33°53' E 131°05'0 0.0
2017-Dec-08 04:58N 33°53' E 131°05'0 0.0
2017-Dec-08 04:28N 33°53' E 131°05'0 0.0
2017-Dec-08 03:58N 33°53' E 131°05'0 0.0
2017-Dec-08 03:28N 33°53' E 131°05'0 0.2
2017-Dec-08 03:00N 33°53' E 131°05'3 6.9
2017-Dec-08 02:30N 33°52' E 131°09'5 9.2
2017-Dec-08 02:00N 33°51' E 131°14'5 9.1
2017-Dec-08 01:30N 33°50' E 131°20'5 9.5
2017-Dec-08 01:01N 33°49' E 131°25'5 9.7
2017-Dec-08 00:30N 33°48' E 131°31'5 9.4
2017-Dec-08 00:00N 33°47' E 131°37'5 9.3
2017-Dec-07 23:30N 33°47' E 131°42'5 9.1
2017-Dec-07 23:00N 33°45' E 131°48'5 9.3
2017-Dec-07 22:30N 33°44' E 131°53'15 9.4
2017-Dec-07 20:55N 33°43' E 132°11'410.4
2017-Dec-07 20:30N 33°44' E 132°16'510.5
2017-Dec-07 19:59N 33°46' E 132°22'610.8
2017-Dec-07 19:29N 33°48' E 132°28'511.2
2017-Dec-07 19:00N 33°51' E 132°33'611.2
2017-Dec-07 18:30N 33°55' E 132°38'611.1
2017-Dec-07 17:59N 33°59' E 132°43'  
2017-Dec-03 06:30N 34°05' E 132°50'5 8.9
2017-Dec-03 05:58N 34°01' E 132°46'4 7.9
2017-Dec-03 05:30N 33°58' E 132°44'4 7.3
2017-Dec-03 05:00N 33°56' E 132°40'4 7.6
2017-Dec-03 04:29N 33°53' E 132°37'6 8.7
2017-Dec-03 03:46N 33°49' E 132°31'3 8.9
2017-Dec-03 03:28N 33°47' E 132°29'9 9.1
2017-Dec-03 02:29N 33°44' E 132°19'18 9.8
2017-Dec-03 00:41N 33°43' E 131°58'410.4
2017-Dec-03 00:20N 33°44' E 131°53'410.5
2017-Dec-02 23:57N 33°45' E 131°49'510.1
2017-Dec-02 23:30N 33°46' E 131°43'5 9.7
2017-Dec-02 23:00N 33°47' E 131°38'5 9.7
2017-Dec-02 22:30N 33°48' E 131°32'5 9.5
2017-Dec-02 22:00N 33°49' E 131°26'5 9.4
2017-Dec-02 21:31N 33°50' E 131°21'5 9.2
2017-Dec-02 21:00N 33°51' E 131°15'4 8.9
2017-Dec-02 20:31N 33°52' E 131°10'5 9.3
2017-Dec-02 20:00N 33°55' E 131°06'5 9.7
2017-Dec-02 19:30N 33°58' E 131°01'510.2
2017-Dec-02 19:00N 33°56' E 130°56'4 8.0
2017-Dec-02 18:30N 33°57' E 130°51'5 9.4
2017-Dec-02 18:00N 34°01' E 130°50'5 9.6
2017-Dec-02 17:30N 34°04' E 130°45'5 9.1
2017-Dec-02 17:00N 34°07' E 130°41'5 9.3
2017-Dec-02 16:30N 34°10' E 130°36'5 9.3
2017-Dec-02 16:00N 34°12' E 130°32'5 9.3
2017-Dec-02 15:30N 34°15' E 130°27'5 9.1
2017-Dec-02 15:00N 34°17' E 130°22'4 8.0
2017-Dec-02 14:30N 34°20' E 130°18'4 7.6
2017-Dec-02 14:00N 34°22' E 130°15'4 7.8
2017-Dec-02 13:30N 34°24' E 130°11'  

Dump ship's entire track history